sensor_id;sensor_type;location;lat;lon;timestamp;pressure;altitude;pressure_sealevel;temperature;humidity
57594;BME280;43423;46.510;6.686;2023-10-31T00:01:20;95369.25;;;11.40;98.46
57594;BME280;43423;46.510;6.686;2023-10-31T00:03:46;95372.03;;;11.35;99.14
57594;BME280;43423;46.510;6.686;2023-10-31T00:06:12;95370.44;;;11.45;96.33
57594;BME280;43423;46.510;6.686;2023-10-31T00:08:37;95378.50;;;11.37;98.32
57594;BME280;43423;46.510;6.686;2023-10-31T00:11:03;95372.72;;;11.41;96.07
57594;BME280;43423;46.510;6.686;2023-10-31T00:13:29;95373.47;;;11.41;96.44
57594;BME280;43423;46.510;6.686;2023-10-31T00:15:54;95373.00;;;11.37;94.98
57594;BME280;43423;46.510;6.686;2023-10-31T00:18:20;95386.81;;;11.32;98.59
57594;BME280;43423;46.510;6.686;2023-10-31T00:20:46;95366.75;;;11.37;94.43
57594;BME280;43423;46.510;6.686;2023-10-31T00:23:12;95377.22;;;11.44;94.84
57594;BME280;43423;46.510;6.686;2023-10-31T00:25:37;95390.19;;;11.08;99.68
57594;BME280;43423;46.510;6.686;2023-10-31T00:28:03;95381.41;;;11.15;98.16
57594;BME280;43423;46.510;6.686;2023-10-31T00:30:29;95389.50;;;11.37;95.89
57594;BME280;43423;46.510;6.686;2023-10-31T00:32:54;95389.50;;;11.37;94.60
57594;BME280;43423;46.510;6.686;2023-10-31T00:35:20;95384.00;;;11.37;95.19
57594;BME280;43423;46.510;6.686;2023-10-31T00:37:45;95394.22;;;11.48;90.14
57594;BME280;43423;46.510;6.686;2023-10-31T00:40:11;95395.00;;;11.43;91.61
57594;BME280;43423;46.510;6.686;2023-10-31T00:42:38;95394.00;;;11.40;91.77
57594;BME280;43423;46.510;6.686;2023-10-31T00:45:04;95383.81;;;11.30;89.91
57594;BME280;43423;46.510;6.686;2023-10-31T00:47:29;95397.53;;;11.35;90.95
57594;BME280;43423;46.510;6.686;2023-10-31T00:49:55;95386.28;;;11.33;92.94
57594;BME280;43423;46.510;6.686;2023-10-31T00:52:21;95393.56;;;11.31;95.88
57594;BME280;43423;46.510;6.686;2023-10-31T00:54:46;95399.31;;;11.27;95.23
57594;BME280;43423;46.510;6.686;2023-10-31T00:57:12;95400.75;;;10.87;100.00
57594;BME280;43423;46.510;6.686;2023-10-31T00:59:37;95401.72;;;11.01;96.93
57594;BME280;43423;46.510;6.686;2023-10-31T01:02:04;95395.00;;;10.90;98.76
57594;BME280;43423;46.510;6.686;2023-10-31T01:04:30;95391.31;;;10.71;100.00
57594;BME280;43423;46.510;6.686;2023-10-31T01:06:56;95396.06;;;10.65;100.00
57594;BME280;43423;46.510;6.686;2023-10-31T01:09:22;95403.06;;;10.66;100.00
57594;BME280;43423;46.510;6.686;2023-10-31T01:11:47;95402.38;;;10.49;100.00
57594;BME280;43423;46.510;6.686;2023-10-31T01:14:13;95398.59;;;10.57;100.00
57594;BME280;43423;46.510;6.686;2023-10-31T01:16:40;95405.38;;;10.40;100.00
57594;BME280;43423;46.510;6.686;2023-10-31T01:19:06;95409.34;;;10.67;100.00
57594;BME280;43423;46.510;6.686;2023-10-31T01:21:31;95405.34;;;10.62;100.00
57594;BME280;43423;46.510;6.686;2023-10-31T01:23:58;95410.03;;;10.78;100.00
57594;BME280;43423;46.510;6.686;2023-10-31T01:26:24;95413.81;;;10.75;100.00
57594;BME280;43423;46.510;6.686;2023-10-31T01:28:49;95418.63;;;10.41;100.00
57594;BME280;43423;46.510;6.686;2023-10-31T01:31:15;95418.06;;;10.65;100.00
57594;BME280;43423;46.510;6.686;2023-10-31T01:33:41;95423.22;;;10.97;100.00
57594;BME280;43423;46.510;6.686;2023-10-31T01:36:06;95424.59;;;10.62;100.00
57594;BME280;43423;46.510;6.686;2023-10-31T01:38:32;95434.63;;;10.37;100.00
57594;BME280;43423;46.510;6.686;2023-10-31T01:40:57;95432.38;;;10.24;100.00
57594;BME280;43423;46.510;6.686;2023-10-31T01:43:34;95439.59;;;10.67;100.00
57594;BME280;43423;46.510;6.686;2023-10-31T01:46:00;95442.34;;;10.67;100.00
57594;BME280;43423;46.510;6.686;2023-10-31T01:48:28;95432.59;;;10.49;100.00
57594;BME280;43423;46.510;6.686;2023-10-31T01:50:54;95427.84;;;10.55;100.00
57594;BME280;43423;46.510;6.686;2023-10-31T01:53:21;95432.38;;;10.24;100.00
57594;BME280;43423;46.510;6.686;2023-10-31T01:55:48;95438.38;;;10.40;100.00
57594;BME280;43423;46.510;6.686;2023-10-31T01:58:14;95437.31;;;10.65;100.00
57594;BME280;43423;46.510;6.686;2023-10-31T02:00:40;95436.00;;;10.88;100.00
57594;BME280;43423;46.510;6.686;2023-10-31T02:03:07;95437.38;;;10.43;100.00
57594;BME280;43423;46.510;6.686;2023-10-31T02:05:33;95440.00;;;10.87;100.00
57594;BME280;43423;46.510;6.686;2023-10-31T02:08:02;95455.19;;;11.11;92.90
57594;BME280;43423;46.510;6.686;2023-10-31T02:10:28;95445.97;;;11.03;91.18
57594;BME280;43423;46.510;6.686;2023-10-31T02:12:54;95443.38;;;11.22;91.80
57594;BME280;43423;46.510;6.686;2023-10-31T02:15:19;95448.09;;;11.32;88.83
57594;BME280;43423;46.510;6.686;2023-10-31T02:17:45;95456.44;;;11.15;90.08
57594;BME280;43423;46.510;6.686;2023-10-31T02:20:10;95458.69;;;11.11;92.08
57594;BME280;43423;46.510;6.686;2023-10-31T02:22:36;95466.41;;;11.24;91.11
57594;BME280;43423;46.510;6.686;2023-10-31T02:25:01;95466.75;;;10.93;93.84
57594;BME280;43423;46.510;6.686;2023-10-31T02:27:27;95470.13;;;11.21;89.22
57594;BME280;43423;46.510;6.686;2023-10-31T02:29:53;95469.38;;;11.26;89.43
57594;BME280;43423;46.510;6.686;2023-10-31T02:32:18;95462.06;;;10.76;95.31
57594;BME280;43423;46.510;6.686;2023-10-31T02:34:45;95478.00;;;10.95;96.72
57594;BME280;43423;46.510;6.686;2023-10-31T02:37:11;95469.00;;;11.00;94.48
57594;BME280;43423;46.510;6.686;2023-10-31T02:39:37;95473.91;;;11.24;89.77
57594;BME280;43423;46.510;6.686;2023-10-31T02:42:03;95477.19;;;11.11;91.82
57594;BME280;43423;46.510;6.686;2023-10-31T02:44:29;95473.47;;;11.03;90.64
57594;BME280;43423;46.510;6.686;2023-10-31T02:46:54;95468.47;;;11.01;90.72
57594;BME280;43423;46.510;6.686;2023-10-31T02:49:20;95464.97;;;11.06;90.64
57594;BME280;43423;46.510;6.686;2023-10-31T02:51:46;95463.44;;;11.11;85.96
57594;BME280;43423;46.510;6.686;2023-10-31T02:54:12;95459.34;;;11.29;86.73
57594;BME280;43423;46.510;6.686;2023-10-31T02:56:37;95458.34;;;11.32;84.74
57594;BME280;43423;46.510;6.686;2023-10-31T02:59:03;95464.38;;;11.30;87.85
57594;BME280;43423;46.510;6.686;2023-10-31T03:01:29;95460.81;;;11.41;84.38
57594;BME280;43423;46.510;6.686;2023-10-31T03:03:54;95454.81;;;11.37;85.42
57594;BME280;43423;46.510;6.686;2023-10-31T03:06:21;95447.31;;;11.37;86.97
57594;BME280;43423;46.510;6.686;2023-10-31T03:08:46;95445.56;;;11.34;87.42
57594;BME280;43423;46.510;6.686;2023-10-31T03:11:25;95440.50;;;11.44;86.88
57594;BME280;43423;46.510;6.686;2023-10-31T03:13:51;95445.06;;;11.36;86.64
57594;BME280;43423;46.510;6.686;2023-10-31T03:16:18;95443.06;;;11.36;87.81
57594;BME280;43423;46.510;6.686;2023-10-31T03:18:45;95441.03;;;11.42;85.14
57594;BME280;43423;46.510;6.686;2023-10-31T03:21:11;95437.72;;;11.03;94.81
57594;BME280;43423;46.510;6.686;2023-10-31T03:23:37;95432.78;;;11.37;87.12
57594;BME280;43423;46.510;6.686;2023-10-31T03:26:03;95430.03;;;11.42;87.34
57594;BME280;43423;46.510;6.686;2023-10-31T03:28:28;95430.50;;;11.46;84.82
57594;BME280;43423;46.510;6.686;2023-10-31T03:30:54;95423.22;;;11.49;84.99
57594;BME280;43423;46.510;6.686;2023-10-31T03:33:19;95430.78;;;11.43;84.86
57594;BME280;43423;46.510;6.686;2023-10-31T03:35:46;95419.50;;;11.46;85.33
57594;BME280;43423;46.510;6.686;2023-10-31T03:38:11;95419.25;;;11.44;85.21
57594;BME280;43423;46.510;6.686;2023-10-31T03:40:37;95420.13;;;11.23;88.23
57594;BME280;43423;46.510;6.686;2023-10-31T03:43:03;95416.50;;;10.86;97.17
57594;BME280;43423;46.510;6.686;2023-10-31T03:45:29;95413.75;;;10.86;100.00
57594;BME280;43423;46.510;6.686;2023-10-31T03:47:54;95411.63;;;10.46;100.00
57594;BME280;43423;46.510;6.686;2023-10-31T03:50:20;95405.16;;;10.43;100.00
57594;BME280;43423;46.510;6.686;2023-10-31T03:52:46;95406.13;;;10.34;100.00
57594;BME280;43423;46.510;6.686;2023-10-31T03:55:11;95403.38;;;10.46;100.00
57594;BME280;43423;46.510;6.686;2023-10-31T03:57:37;95417.13;;;10.34;100.00
57594;BME280;43423;46.510;6.686;2023-10-31T04:00:03;95411.34;;;10.55;100.00
57594;BME280;43423;46.510;6.686;2023-10-31T04:02:32;95419.84;;;10.57;100.00
57594;BME280;43423;46.510;6.686;2023-10-31T04:04:57;95416.09;;;10.60;100.00
57594;BME280;43423;46.510;6.686;2023-10-31T04:07:23;95421.56;;;10.71;100.00
57594;BME280;43423;46.510;6.686;2023-10-31T04:09:49;95423.84;;;10.67;100.00
57594;BME280;43423;46.510;6.686;2023-10-31T04:12:14;95424.28;;;10.82;100.00
57594;BME280;43423;46.510;6.686;2023-10-31T04:14:40;95426.09;;;10.57;100.00
57594;BME280;43423;46.510;6.686;2023-10-31T04:17:05;95439.59;;;10.61;100.00
57594;BME280;43423;46.510;6.686;2023-10-31T04:19:31;95447.78;;;10.72;100.00
57594;BME280;43423;46.510;6.686;2023-10-31T04:21:56;95461.44;;;11.06;100.00
57594;BME280;43423;46.510;6.686;2023-10-31T04:24:22;95456.78;;;10.78;100.00
57594;BME280;43423;46.510;6.686;2023-10-31T04:26:47;95455.75;;;10.93;100.00
57594;BME280;43423;46.510;6.686;2023-10-31T04:29:13;95468.78;;;10.81;100.00
57594;BME280;43423;46.510;6.686;2023-10-31T04:31:39;95470.81;;;10.58;100.00
57594;BME280;43423;46.510;6.686;2023-10-31T04:34:04;95470.50;;;10.89;100.00
57594;BME280;43423;46.510;6.686;2023-10-31T04:36:30;95472.53;;;10.78;100.00
57594;BME280;43423;46.510;6.686;2023-10-31T04:38:55;95476.50;;;10.99;100.00
57594;BME280;43423;46.510;6.686;2023-10-31T04:41:21;95484.47;;;10.97;100.00
57594;BME280;43423;46.510;6.686;2023-10-31T04:43:46;95477.97;;;11.00;100.00
57594;BME280;43423;46.510;6.686;2023-10-31T04:46:12;95489.22;;;11.08;100.00
57594;BME280;43423;46.510;6.686;2023-10-31T04:48:38;95487.00;;;10.89;100.00
57594;BME280;43423;46.510;6.686;2023-10-31T04:51:04;95504.75;;;11.00;100.00
57594;BME280;43423;46.510;6.686;2023-10-31T04:53:29;95498.97;;;11.09;98.51
57594;BME280;43423;46.510;6.686;2023-10-31T04:55:57;95501.72;;;10.98;100.00
57594;BME280;43423;46.510;6.686;2023-10-31T04:58:23;95500.97;;;11.08;99.65
57594;BME280;43423;46.510;6.686;2023-10-31T05:00:48;95505.25;;;10.93;100.00
57594;BME280;43423;46.510;6.686;2023-10-31T05:03:14;95506.19;;;11.12;96.97
57594;BME280;43423;46.510;6.686;2023-10-31T05:05:39;95505.19;;;11.15;97.11
57594;BME280;43423;46.510;6.686;2023-10-31T05:08:05;95509.47;;;11.10;95.06
57594;BME280;43423;46.510;6.686;2023-10-31T05:10:31;95517.19;;;11.12;97.64
57594;BME280;43423;46.510;6.686;2023-10-31T05:12:56;95519.19;;;11.11;100.00
57594;BME280;43423;46.510;6.686;2023-10-31T05:15:22;95510.47;;;11.02;100.00
57594;BME280;43423;46.510;6.686;2023-10-31T05:17:47;95524.00;;;11.00;100.00
57594;BME280;43423;46.510;6.686;2023-10-31T05:20:13;95520.22;;;10.97;93.89
57594;BME280;43423;46.510;6.686;2023-10-31T05:22:40;95508.28;;;10.72;94.11
57594;BME280;43423;46.510;6.686;2023-10-31T05:25:06;95520.53;;;10.82;91.95
57594;BME280;43423;46.510;6.686;2023-10-31T05:27:32;95519.78;;;10.65;97.58
57594;BME280;43423;46.510;6.686;2023-10-31T05:29:58;95522.78;;;10.73;95.79
57594;BME280;43423;46.510;6.686;2023-10-31T05:32:23;95525.75;;;10.80;96.33
57594;BME280;43423;46.510;6.686;2023-10-31T05:34:49;95527.25;;;10.93;97.60
57594;BME280;43423;46.510;6.686;2023-10-31T05:37:14;95515.75;;;10.88;99.47
57594;BME280;43423;46.510;6.686;2023-10-31T05:39:40;95520.53;;;10.71;100.00
57594;BME280;43423;46.510;6.686;2023-10-31T05:42:06;95514.06;;;10.46;100.00
57594;BME280;43423;46.510;6.686;2023-10-31T05:44:31;95511.06;;;10.61;98.06
57594;BME280;43423;46.510;6.686;2023-10-31T05:46:57;95509.78;;;10.73;92.90
57594;BME280;43423;46.510;6.686;2023-10-31T05:49:22;95515.25;;;10.96;91.10
57594;BME280;43423;46.510;6.686;2023-10-31T05:51:51;95524.03;;;10.66;98.24
57594;BME280;43423;46.510;6.686;2023-10-31T05:54:17;95512.03;;;10.75;100.00
57594;BME280;43423;46.510;6.686;2023-10-31T05:56:42;95513.25;;;10.96;91.99
57594;BME280;43423;46.510;6.686;2023-10-31T05:59:08;95509.22;;;11.03;95.04
57594;BME280;43423;46.510;6.686;2023-10-31T06:01:34;95512.72;;;11.03;90.79
57594;BME280;43423;46.510;6.686;2023-10-31T06:03:59;95502.22;;;11.02;87.85
57594;BME280;43423;46.510;6.686;2023-10-31T06:06:25;95496.25;;;10.81;94.87
57594;BME280;43423;46.510;6.686;2023-10-31T06:08:50;95502.50;;;10.93;90.84
57594;BME280;43423;46.510;6.686;2023-10-31T06:11:16;95508.28;;;10.83;89.17
57594;BME280;43423;46.510;6.686;2023-10-31T06:13:42;95506.19;;;11.12;86.33
57594;BME280;43423;46.510;6.686;2023-10-31T06:16:07;95511.22;;;11.08;87.58
57594;BME280;43423;46.510;6.686;2023-10-31T06:18:33;95524.47;;;11.15;85.81
57594;BME280;43423;46.510;6.686;2023-10-31T06:21:00;95534.16;;;11.22;86.38
57594;BME280;43423;46.510;6.686;2023-10-31T06:23:25;95527.44;;;11.17;86.95
57594;BME280;43423;46.510;6.686;2023-10-31T06:25:51;95535.94;;;11.19;86.58
57594;BME280;43423;46.510;6.686;2023-10-31T06:28:16;95533.47;;;11.04;87.54
57594;BME280;43423;46.510;6.686;2023-10-31T06:30:42;95543.25;;;11.00;89.50
57594;BME280;43423;46.510;6.686;2023-10-31T06:33:07;95542.03;;;10.73;96.05
57594;BME280;43423;46.510;6.686;2023-10-31T06:35:34;95547.28;;;10.71;98.63
57594;BME280;43423;46.510;6.686;2023-10-31T06:38:00;95550.78;;;10.60;100.00
57594;BME280;43423;46.510;6.686;2023-10-31T06:40:26;95551.78;;;10.68;100.00
57594;BME280;43423;46.510;6.686;2023-10-31T06:42:52;95563.03;;;10.76;100.00
57594;BME280;43423;46.510;6.686;2023-10-31T06:45:18;95574.78;;;10.71;100.00
57594;BME280;43423;46.510;6.686;2023-10-31T06:47:44;95579.53;;;10.70;100.00
57594;BME280;43423;46.510;6.686;2023-10-31T06:50:09;95584.53;;;10.44;100.00
57594;BME280;43423;46.510;6.686;2023-10-31T06:52:35;95594.03;;;10.59;100.00
57594;BME280;43423;46.510;6.686;2023-10-31T06:55:01;95589.50;;;10.56;100.00
57594;BME280;43423;46.510;6.686;2023-10-31T06:57:26;95599.00;;;10.27;100.00
57594;BME280;43423;46.510;6.686;2023-10-31T06:59:52;95594.53;;;10.52;100.00
57594;BME280;43423;46.510;6.686;2023-10-31T07:02:18;95604.75;;;10.57;100.00
57594;BME280;43423;46.510;6.686;2023-10-31T07:04:44;95599.78;;;10.61;100.00
57594;BME280;43423;46.510;6.686;2023-10-31T07:07:09;95608.47;;;10.32;100.00
57594;BME280;43423;46.510;6.686;2023-10-31T07:09:35;95609.53;;;10.85;100.00
57594;BME280;43423;46.510;6.686;2023-10-31T07:12:00;95611.50;;;11.07;100.00
57594;BME280;43423;46.510;6.686;2023-10-31T07:14:26;95611.75;;;11.09;100.00
57594;BME280;43423;46.510;6.686;2023-10-31T07:16:52;95618.03;;;10.93;100.00
57594;BME280;43423;46.510;6.686;2023-10-31T07:19:17;95617.53;;;10.77;100.00
57594;BME280;43423;46.510;6.686;2023-10-31T07:21:43;95615.25;;;10.81;100.00
57594;BME280;43423;46.510;6.686;2023-10-31T07:24:08;95615.00;;;11.07;100.00
57594;BME280;43423;46.510;6.686;2023-10-31T07:26:35;95622.75;;;11.03;100.00
57594;BME280;43423;46.510;6.686;2023-10-31T07:29:01;95619.00;;;11.12;100.00
57594;BME280;43423;46.510;6.686;2023-10-31T07:31:26;95614.50;;;11.09;100.00
57594;BME280;43423;46.510;6.686;2023-10-31T07:33:52;95622.00;;;10.80;100.00
57594;BME280;43423;46.510;6.686;2023-10-31T07:36:17;95622.03;;;10.86;100.00
57594;BME280;43423;46.510;6.686;2023-10-31T07:38:43;95627.78;;;10.82;100.00
57594;BME280;43423;46.510;6.686;2023-10-31T07:41:09;95630.03;;;10.78;100.00
57594;BME280;43423;46.510;6.686;2023-10-31T07:43:34;95622.28;;;10.82;100.00
57594;BME280;43423;46.510;6.686;2023-10-31T07:46:00;95634.50;;;11.04;100.00
57594;BME280;43423;46.510;6.686;2023-10-31T07:48:25;95641.28;;;10.92;100.00
57594;BME280;43423;46.510;6.686;2023-10-31T07:50:51;95636.75;;;10.88;100.00
57594;BME280;43423;46.510;6.686;2023-10-31T07:53:16;95648.50;;;10.89;100.00
57594;BME280;43423;46.510;6.686;2023-10-31T07:55:43;95639.75;;;10.79;100.00
57594;BME280;43423;46.510;6.686;2023-10-31T07:58:08;95645.28;;;11.02;100.00
57594;BME280;43423;46.510;6.686;2023-10-31T08:00:35;95640.25;;;11.17;100.00
57594;BME280;43423;46.510;6.686;2023-10-31T08:03:02;95654.28;;;10.85;100.00
57594;BME280;43423;46.510;6.686;2023-10-31T08:05:27;95663.78;;;11.01;100.00
57594;BME280;43423;46.510;6.686;2023-10-31T08:07:53;95662.78;;;11.15;100.00
57594;BME280;43423;46.510;6.686;2023-10-31T08:10:19;95659.28;;;10.93;100.00
57594;BME280;43423;46.510;6.686;2023-10-31T08:12:44;95666.28;;;10.94;100.00
57594;BME280;43423;46.510;6.686;2023-10-31T08:15:10;95658.53;;;10.86;100.00
57594;BME280;43423;46.510;6.686;2023-10-31T08:17:35;95664.22;;;10.55;100.00
57594;BME280;43423;46.510;6.686;2023-10-31T08:20:02;95657.72;;;10.47;100.00
57594;BME280;43423;46.510;6.686;2023-10-31T08:22:30;95673.47;;;10.46;100.00
57594;BME280;43423;46.510;6.686;2023-10-31T08:24:56;95665.97;;;10.47;100.00
57594;BME280;43423;46.510;6.686;2023-10-31T08:27:22;95665.97;;;10.47;100.00
57594;BME280;43423;46.510;6.686;2023-10-31T08:29:48;95668.44;;;10.39;100.00
57594;BME280;43423;46.510;6.686;2023-10-31T08:32:13;95667.22;;;10.46;100.00
57594;BME280;43423;46.510;6.686;2023-10-31T08:34:39;95665.75;;;10.73;100.00
57594;BME280;43423;46.510;6.686;2023-10-31T08:37:04;95665.50;;;10.71;100.00
57594;BME280;43423;46.510;6.686;2023-10-31T08:39:30;95669.03;;;10.77;100.00
57594;BME280;43423;46.510;6.686;2023-10-31T08:41:57;95675.25;;;10.66;100.00
57594;BME280;43423;46.510;6.686;2023-10-31T08:44:23;95678.53;;;11.09;100.00
57594;BME280;43423;46.510;6.686;2023-10-31T08:46:49;95674.53;;;10.82;100.00
57594;BME280;43423;46.510;6.686;2023-10-31T08:49:15;95681.03;;;10.96;100.00
57594;BME280;43423;46.510;6.686;2023-10-31T08:51:41;95683.03;;;10.84;100.00
57594;BME280;43423;46.510;6.686;2023-10-31T08:54:07;95697.03;;;10.92;100.00
57594;BME280;43423;46.510;6.686;2023-10-31T08:56:34;95693.03;;;11.10;100.00
57594;BME280;43423;46.510;6.686;2023-10-31T08:59:00;95696.78;;;11.07;100.00
57594;BME280;43423;46.510;6.686;2023-10-31T09:01:26;95705.53;;;10.94;100.00
57594;BME280;43423;46.510;6.686;2023-10-31T09:03:52;95702.28;;;10.84;100.00
57594;BME280;43423;46.510;6.686;2023-10-31T09:06:18;95702.28;;;10.84;100.00
57594;BME280;43423;46.510;6.686;2023-10-31T09:08:44;95695.75;;;10.71;100.00
57594;BME280;43423;46.510;6.686;2023-10-31T09:11:09;95706.72;;;10.65;100.00
57594;BME280;43423;46.510;6.686;2023-10-31T09:13:35;95701.78;;;10.92;100.00
57594;BME280;43423;46.510;6.686;2023-10-31T09:16:00;95702.72;;;10.66;100.00
57594;BME280;43423;46.510;6.686;2023-10-31T09:18:27;95706.25;;;10.67;100.00
57594;BME280;43423;46.510;6.686;2023-10-31T09:20:53;95700.75;;;10.67;100.00
57594;BME280;43423;46.510;6.686;2023-10-31T09:23:19;95694.00;;;10.68;100.00
57594;BME280;43423;46.510;6.686;2023-10-31T09:25:45;95710.28;;;10.94;100.00
57594;BME280;43423;46.510;6.686;2023-10-31T09:28:10;95703.50;;;10.61;100.00
57594;BME280;43423;46.510;6.686;2023-10-31T09:30:36;95707.94;;;10.47;100.00
57594;BME280;43423;46.510;6.686;2023-10-31T09:33:02;95709.94;;;10.47;100.00
57594;BME280;43423;46.510;6.686;2023-10-31T09:35:27;95710.00;;;10.69;100.00
57594;BME280;43423;46.510;6.686;2023-10-31T09:37:54;95703.75;;;10.69;100.00
57594;BME280;43423;46.510;6.686;2023-10-31T09:40:20;95701.25;;;10.59;100.00
57594;BME280;43423;46.510;6.686;2023-10-31T09:42:46;95718.97;;;10.58;100.00
57594;BME280;43423;46.510;6.686;2023-10-31T09:45:13;95709.91;;;10.41;100.00
57594;BME280;43423;46.510;6.686;2023-10-31T09:47:39;95728.78;;;10.87;100.00
57594;BME280;43423;46.510;6.686;2023-10-31T09:50:06;95725.00;;;10.74;100.00
57594;BME280;43423;46.510;6.686;2023-10-31T09:52:32;95732.50;;;10.73;100.00
57594;BME280;43423;46.510;6.686;2023-10-31T09:54:59;95730.25;;;10.72;100.00
57594;BME280;43423;46.510;6.686;2023-10-31T09:57:24;95724.22;;;10.62;100.00
57594;BME280;43423;46.510;6.686;2023-10-31T09:59:51;95726.03;;;10.93;100.00
57594;BME280;43423;46.510;6.686;2023-10-31T10:02:17;95729.06;;;11.01;100.00
57594;BME280;43423;46.510;6.686;2023-10-31T10:04:43;95734.53;;;10.89;100.00
57594;BME280;43423;46.510;6.686;2023-10-31T10:07:13;95740.53;;;10.82;100.00
57594;BME280;43423;46.510;6.686;2023-10-31T10:09:40;95742.03;;;10.95;100.00
57594;BME280;43423;46.510;6.686;2023-10-31T10:12:07;95732.28;;;11.05;100.00
57594;BME280;43423;46.510;6.686;2023-10-31T10:14:32;95736.56;;;11.28;100.00
57594;BME280;43423;46.510;6.686;2023-10-31T10:16:59;95747.81;;;11.53;100.00
57594;BME280;43423;46.510;6.686;2023-10-31T10:19:25;95746.56;;;11.48;100.00
57594;BME280;43423;46.510;6.686;2023-10-31T10:21:55;95748.31;;;11.40;98.10
57594;BME280;43423;46.510;6.686;2023-10-31T10:24:22;95750.81;;;11.32;93.71
57594;BME280;43423;46.510;6.686;2023-10-31T10:26:49;95749.34;;;11.31;92.23
57594;BME280;43423;46.510;6.686;2023-10-31T10:29:15;95750.31;;;11.28;95.43
57594;BME280;43423;46.510;6.686;2023-10-31T10:31:41;95749.81;;;11.35;92.58
57594;BME280;43423;46.510;6.686;2023-10-31T10:34:08;95757.09;;;11.33;93.88
57594;BME280;43423;46.510;6.686;2023-10-31T10:36:33;95748.31;;;11.23;93.73
57594;BME280;43423;46.510;6.686;2023-10-31T10:38:59;95761.06;;;11.21;93.53
57594;BME280;43423;46.510;6.686;2023-10-31T10:41:27;95747.31;;;11.09;95.07
57594;BME280;43423;46.510;6.686;2023-10-31T10:43:57;95773.34;;;11.14;94.33
57594;BME280;43423;46.510;6.686;2023-10-31T10:46:28;95759.06;;;10.99;95.30
57594;BME280;43423;46.510;6.686;2023-10-31T10:48:55;95755.78;;;11.06;96.73
57594;BME280;43423;46.510;6.686;2023-10-31T10:54:08;95763.31;;;11.00;94.56
57594;BME280;43423;46.510;6.686;2023-10-31T10:56:44;95771.78;;;10.96;94.87
57594;BME280;43423;46.510;6.686;2023-10-31T10:59:19;95768.03;;;10.94;96.08
57594;BME280;43423;46.510;6.686;2023-10-31T11:01:46;95770.28;;;10.89;97.11
57594;BME280;43423;46.510;6.686;2023-10-31T11:04:15;95773.00;;;10.73;96.57
57594;BME280;43423;46.510;6.686;2023-10-31T11:06:42;95775.97;;;10.69;96.89
57594;BME280;43423;46.510;6.686;2023-10-31T11:09:09;95771.19;;;10.53;95.46
57594;BME280;43423;46.510;6.686;2023-10-31T11:11:37;95788.16;;;10.46;95.94
57594;BME280;43423;46.510;6.686;2023-10-31T11:14:03;95777.66;;;10.44;95.96
57594;BME280;43423;46.510;6.686;2023-10-31T11:16:39;95781.66;;;10.43;98.91
57594;BME280;43423;46.510;6.686;2023-10-31T11:19:09;95780.38;;;10.39;99.10
57594;BME280;43423;46.510;6.686;2023-10-31T11:21:35;95780.91;;;10.48;98.43
57594;BME280;43423;46.510;6.686;2023-10-31T11:24:01;95781.16;;;10.45;97.09
57594;BME280;43423;46.510;6.686;2023-10-31T11:26:28;95787.91;;;10.44;96.20
57594;BME280;43423;46.510;6.686;2023-10-31T11:29:05;95791.63;;;10.35;98.89
57594;BME280;43423;46.510;6.686;2023-10-31T11:31:32;95790.13;;;10.40;95.50
57594;BME280;43423;46.510;6.686;2023-10-31T11:34:03;95800.09;;;10.37;96.99
57594;BME280;43423;46.510;6.686;2023-10-31T11:36:32;95800.28;;;10.22;96.38
57594;BME280;43423;46.510;6.686;2023-10-31T11:39:14;95805.94;;;10.13;96.58
57594;BME280;43423;46.510;6.686;2023-10-31T11:41:48;95809.66;;;10.04;96.19
57594;BME280;43423;46.510;6.686;2023-10-31T11:44:15;95801.66;;;10.06;98.86
57594;BME280;43423;46.510;6.686;2023-10-31T11:46:41;95810.91;;;10.09;98.09
57594;BME280;43423;46.510;6.686;2023-10-31T11:49:06;95816.41;;;10.09;97.16
57594;BME280;43423;46.510;6.686;2023-10-31T11:51:32;95816.69;;;10.11;97.91
57594;BME280;43423;46.510;6.686;2023-10-31T11:54:02;95813.25;;;10.22;100.00
57594;BME280;43423;46.510;6.686;2023-10-31T11:56:28;95814.75;;;10.23;96.20
57594;BME280;43423;46.510;6.686;2023-10-31T11:58:58;95814.28;;;10.24;96.22
57594;BME280;43423;46.510;6.686;2023-10-31T12:01:24;95816.28;;;10.24;100.00
57594;BME280;43423;46.510;6.686;2023-10-31T12:03:50;95809.81;;;10.27;96.22
57594;BME280;43423;46.510;6.686;2023-10-31T12:06:17;95818.59;;;10.37;97.91
57594;BME280;43423;46.510;6.686;2023-10-31T12:08:44;95807.13;;;10.44;97.96
57594;BME280;43423;46.510;6.686;2023-10-31T12:11:14;95809.09;;;10.38;100.00
57594;BME280;43423;46.510;6.686;2023-10-31T12:16:18;95815.38;;;10.49;97.79
57594;BME280;43423;46.510;6.686;2023-10-31T12:18:43;95824.66;;;10.52;97.39
57594;BME280;43423;46.510;6.686;2023-10-31T12:21:09;95822.09;;;10.37;95.64
57594;BME280;43423;46.510;6.686;2023-10-31T12:23:37;95820.56;;;10.30;96.43
57594;BME280;43423;46.510;6.686;2023-10-31T12:26:03;95831.09;;;10.38;97.52
57594;BME280;43423;46.510;6.686;2023-10-31T12:28:29;95833.34;;;10.39;98.44
57594;BME280;43423;46.510;6.686;2023-10-31T12:30:55;95828.34;;;10.38;99.53
57594;BME280;43423;46.510;6.686;2023-10-31T12:33:22;95828.13;;;10.47;99.38
57594;BME280;43423;46.510;6.686;2023-10-31T12:36:00;95843.63;;;10.50;100.00
57594;BME280;43423;46.510;6.686;2023-10-31T12:38:27;95837.16;;;10.58;100.00
57594;BME280;43423;46.510;6.686;2023-10-31T12:40:54;95826.72;;;10.68;100.00
57594;BME280;43423;46.510;6.686;2023-10-31T12:43:20;95835.75;;;10.80;99.40
57594;BME280;43423;46.510;6.686;2023-10-31T12:45:47;95840.53;;;10.85;99.73
57594;BME280;43423;46.510;6.686;2023-10-31T12:48:12;95853.28;;;10.82;98.30
57594;BME280;43423;46.510;6.686;2023-10-31T12:50:39;95842.53;;;10.84;100.00
57594;BME280;43423;46.510;6.686;2023-10-31T12:53:06;95861.28;;;10.86;100.00
57594;BME280;43423;46.510;6.686;2023-10-31T12:55:42;95871.56;;;10.91;99.81